createdAt,value
2023-04-29T00:00:01.471Z,0
2023-04-29T00:01:02.599Z,0
2023-04-29T00:02:00.922Z,0
2023-04-29T00:03:00.819Z,0
2023-04-29T00:04:01.287Z,0
2023-04-29T00:05:01.350Z,0
2023-04-29T00:06:05.178Z,0
2023-04-29T00:07:01.188Z,0
2023-04-29T00:08:01.218Z,0
2023-04-29T00:09:01.285Z,0
2023-04-29T00:10:01.053Z,0
2023-04-29T00:11:08.072Z,0
2023-04-29T00:12:01.901Z,0
2023-04-29T00:13:01.609Z,0
2023-04-29T00:14:01.743Z,0
2023-04-29T00:15:01.286Z,0
2023-04-29T00:16:10.896Z,0
2023-04-29T00:17:01.559Z,0
2023-04-29T00:18:01.524Z,0
2023-04-29T00:19:01.131Z,0
2023-04-29T00:20:01.127Z,0
2023-04-29T00:21:13.895Z,0
2023-04-29T00:22:01.136Z,0.15833333333333333
2023-04-29T00:23:01.172Z,0
2023-04-29T00:24:01.252Z,0.19999999999999998
2023-04-29T00:25:01.191Z,0
2023-04-29T00:26:16.757Z,0
2023-04-29T00:27:01.048Z,0
2023-04-29T00:28:01.039Z,0
2023-04-29T00:29:01.342Z,0
2023-04-29T00:30:01.904Z,0
2023-04-29T00:31:02.110Z,0
2023-04-29T00:32:01.095Z,0
2023-04-29T00:33:01.146Z,0
2023-04-29T00:34:01.091Z,0.15833333333333333
2023-04-29T00:35:01.757Z,0.23055555555555554
2023-04-29T00:36:01.214Z,0
2023-04-29T00:37:01.445Z,0
2023-04-29T00:38:01.036Z,0
2023-04-29T00:39:01.678Z,0
2023-04-29T00:40:01.131Z,0.08055555555555555
2023-04-29T00:41:01.742Z,0
2023-04-29T00:42:01.340Z,0
2023-04-29T00:43:02.589Z,0.19999999999999998
2023-04-29T00:44:02.601Z,0
2023-04-29T00:45:02.285Z,0
2023-04-29T00:46:01.354Z,0
2023-04-29T00:47:01.081Z,0
2023-04-29T00:48:01.143Z,0
2023-04-29T00:49:01.085Z,0
2023-04-29T00:50:01.205Z,0
2023-04-29T00:51:01.168Z,0
2023-04-29T00:52:01.695Z,0
2023-04-29T00:53:01.188Z,0
2023-04-29T00:54:02.465Z,0
2023-04-29T00:55:01.512Z,0
2023-04-29T00:56:04.145Z,0
2023-04-29T00:57:01.055Z,0
2023-04-29T00:58:01.025Z,0
2023-04-29T00:59:01.071Z,0
2023-04-29T01:00:01.053Z,0
2023-04-29T01:01:01.063Z,0.11944444444444444
2023-04-29T01:02:01.491Z,0
2023-04-29T01:03:01.527Z,0
2023-04-29T01:04:01.364Z,0.2777777777777778
2023-04-29T01:05:02.300Z,0
2023-04-29T01:06:01.092Z,0
2023-04-29T01:07:01.100Z,0
2023-04-29T01:08:01.096Z,0.03888888888888889
2023-04-29T01:09:01.058Z,0.08055555555555555
2023-04-29T01:10:01.188Z,0
2023-04-29T01:11:01.347Z,0
2023-04-29T01:12:01.132Z,0
2023-04-29T01:13:02.306Z,0.08055555555555555
2023-04-29T01:14:01.717Z,0
2023-04-29T01:15:02.096Z,0
2023-04-29T01:16:01.883Z,0
2023-04-29T01:17:01.070Z,0
2023-04-29T01:18:01.068Z,0
2023-04-29T01:19:01.066Z,0.23888888888888887
2023-04-29T01:20:01.494Z,0
2023-04-29T01:21:01.120Z,0
2023-04-29T01:22:01.455Z,0
2023-04-29T01:23:01.111Z,0
2023-04-29T01:24:01.110Z,0
2023-04-29T01:25:01.106Z,0
2023-04-29T01:26:01.345Z,0.03888888888888889
2023-04-29T01:27:01.126Z,0.08611111111111111
2023-04-29T01:28:01.124Z,0
2023-04-29T01:29:01.022Z,0
2023-04-29T01:30:01.490Z,0.25833333333333336
2023-04-29T01:31:01.162Z,0
2023-04-29T01:32:01.056Z,0.40555555555555556
2023-04-29T01:33:01.431Z,0
2023-04-29T01:34:01.056Z,0
2023-04-29T01:35:01.060Z,0
2023-04-29T01:36:01.106Z,0.31666666666666665
2023-04-29T01:37:01.071Z,0
2023-04-29T01:38:01.084Z,0
2023-04-29T01:39:01.400Z,0
2023-04-29T01:40:01.053Z,0
2023-04-29T01:41:01.113Z,0.5166666666666667
2023-04-29T01:42:05.024Z,0.18333333333333335
2023-04-29T01:43:01.123Z,0
2023-04-29T01:44:01.548Z,0
2023-04-29T01:45:01.023Z,0
2023-04-29T01:46:01.020Z,0.11944444444444444
2023-04-29T01:47:09.276Z,0
2023-04-29T01:48:01.136Z,0
2023-04-29T01:49:01.051Z,0
2023-04-29T01:50:01.056Z,0.03888888888888889
2023-04-29T01:51:01.124Z,0
2023-04-29T01:52:12.051Z,0.075
2023-04-29T01:53:01.078Z,0
2023-04-29T01:54:01.128Z,0
2023-04-29T01:55:01.121Z,0
2023-04-29T01:56:01.107Z,0
2023-04-29T01:57:14.959Z,0
2023-04-29T01:58:01.501Z,0
2023-04-29T01:59:00.802Z,0
2023-04-29T02:00:00.469Z,0
2023-04-29T02:01:00.199Z,0
2023-04-29T02:01:59.850Z,0
2023-04-29T02:03:01.821Z,0
2023-04-29T02:04:08.705Z,0.15833333333333333
2023-04-29T02:05:01.572Z,0
2023-04-29T02:06:01.476Z,0.03888888888888889
2023-04-29T02:07:00.760Z,0.19999999999999998
2023-04-29T02:08:00.342Z,0.08055555555555555
2023-04-29T02:08:59.970Z,0
2023-04-29T02:09:59.529Z,0.19999999999999998
2023-04-29T02:11:01.185Z,0.08055555555555555
2023-04-29T02:12:01.113Z,0
2023-04-29T02:13:00.908Z,0
2023-04-29T02:14:00.514Z,0
2023-04-29T02:15:00.217Z,0
2023-04-29T02:15:59.843Z,0
2023-04-29T02:17:02.835Z,0
2023-04-29T02:18:01.651Z,0
2023-04-29T02:19:01.265Z,0
2023-04-29T02:20:01.983Z,0
2023-04-29T02:21:01.994Z,0
2023-04-29T02:22:01.192Z,0.03888888888888889
2023-04-29T02:23:01.070Z,0
2023-04-29T02:24:01.084Z,0
2023-04-29T02:25:01.103Z,0
2023-04-29T02:26:01.997Z,0
2023-04-29T02:27:01.259Z,0
2023-04-29T02:28:01.122Z,0
2023-04-29T02:29:01.491Z,0
2023-04-29T02:30:02.459Z,0
2023-04-29T02:31:01.138Z,0
2023-04-29T02:32:01.067Z,0
2023-04-29T02:33:01.520Z,0
2023-04-29T02:34:01.677Z,0
2023-04-29T02:35:01.725Z,0
2023-04-29T02:36:01.740Z,0
2023-04-29T02:37:01.057Z,0
2023-04-29T02:38:01.066Z,0
2023-04-29T02:39:01.080Z,0
2023-04-29T02:40:01.451Z,0
2023-04-29T02:41:01.491Z,0
2023-04-29T02:42:02.665Z,0
2023-04-29T02:43:01.059Z,0
2023-04-29T02:44:01.106Z,0
2023-04-29T02:45:01.153Z,0
2023-04-29T02:46:01.172Z,0
2023-04-29T02:47:01.130Z,0
2023-04-29T02:48:01.314Z,0
2023-04-29T02:49:01.420Z,0
2023-04-29T02:50:02.240Z,0
2023-04-29T02:51:01.030Z,0.03888888888888889
2023-04-29T02:52:01.090Z,0
2023-04-29T02:53:01.063Z,0.19999999999999998
2023-04-29T02:54:01.060Z,0
2023-04-29T02:55:01.124Z,0
2023-04-29T02:56:01.097Z,0
2023-04-29T02:57:01.352Z,0
2023-04-29T02:58:01.471Z,0
2023-04-29T02:59:02.332Z,0
2023-04-29T03:00:03.022Z,0.075
2023-04-29T03:01:02.700Z,0.11944444444444444
2023-04-29T03:02:01.145Z,0.03888888888888889
2023-04-29T03:03:01.286Z,0
2023-04-29T03:04:01.196Z,0.08055555555555555
2023-04-29T03:05:02.226Z,0.19999999999999998
2023-04-29T03:06:01.064Z,0.4361111111111111
2023-04-29T03:07:01.447Z,0
2023-04-29T03:08:01.060Z,0
2023-04-29T03:09:01.082Z,0
2023-04-29T03:10:01.074Z,0.23888888888888887
2023-04-29T03:11:01.113Z,0.47777777777777775
2023-04-29T03:12:01.035Z,0.5555555555555556
2023-04-29T03:13:01.188Z,0.29444444444444445
2023-04-29T03:14:01.360Z,0.5777777777777778
2023-04-29T03:15:01.441Z,0.15833333333333333
2023-04-29T03:16:01.461Z,0.03888888888888889
2023-04-29T03:17:01.581Z,0.2777777777777778
2023-04-29T03:18:01.158Z,0.011111111111111112
2023-04-29T03:19:01.124Z,0.15833333333333333
2023-04-29T03:20:01.027Z,0
2023-04-29T03:21:01.049Z,0
2023-04-29T03:22:01.070Z,0.08055555555555555
2023-04-29T03:23:01.247Z,0.075
2023-04-29T03:24:00.794Z,0
2023-04-29T03:25:00.506Z,0
2023-04-29T03:26:00.202Z,0
2023-04-29T03:26:59.828Z,0
2023-04-29T03:28:02.596Z,0
2023-04-29T03:29:01.510Z,0
2023-04-29T03:30:01.170Z,0
2023-04-29T03:31:01.173Z,0
2023-04-29T03:32:01.095Z,0
2023-04-29T03:33:06.096Z,0
2023-04-29T03:34:01.648Z,0
2023-04-29T03:35:01.019Z,0
2023-04-29T03:36:01.033Z,0.2777777777777778
2023-04-29T03:37:01.029Z,0
2023-04-29T03:38:08.402Z,0
2023-04-29T03:39:01.041Z,0
2023-04-29T03:40:01.084Z,0.03888888888888889
2023-04-29T03:41:01.042Z,0
2023-04-29T03:42:01.015Z,0
2023-04-29T03:43:10.457Z,0
2023-04-29T03:44:01.255Z,0
2023-04-29T03:45:01.105Z,0
2023-04-29T03:46:01.125Z,0
2023-04-29T03:47:02.000Z,0
2023-04-29T03:48:13.591Z,0
2023-04-29T03:49:01.359Z,0
2023-04-29T03:50:01.456Z,0
2023-04-29T03:51:02.810Z,0
2023-04-29T03:52:01.130Z,0
2023-04-29T03:53:14.103Z,0
2023-04-29T03:54:01.047Z,0
2023-04-29T03:55:01.278Z,0
2023-04-29T03:56:01.427Z,0
2023-04-29T03:57:01.163Z,0
2023-04-29T03:58:01.060Z,0
2023-04-29T03:59:01.038Z,0
2023-04-29T04:00:01.095Z,0
2023-04-29T04:01:01.144Z,0
2023-04-29T04:02:01.145Z,0
2023-04-29T04:03:04.463Z,0
2023-04-29T04:04:01.288Z,0
2023-04-29T04:05:01.077Z,0
2023-04-29T04:06:01.554Z,0
2023-04-29T04:07:01.724Z,0
2023-04-29T04:08:01.155Z,0
2023-04-29T04:09:01.034Z,0
2023-04-29T04:10:00.839Z,0
2023-04-29T04:11:01.408Z,0
2023-04-29T04:12:02.576Z,0
2023-04-29T04:13:01.838Z,0
2023-04-29T04:14:01.168Z,0
2023-04-29T04:15:01.089Z,0
2023-04-29T04:16:01.085Z,0
2023-04-29T04:17:01.076Z,0
2023-04-29T04:18:01.167Z,0
2023-04-29T04:19:01.258Z,0
2023-04-29T04:20:02.007Z,0
2023-04-29T04:21:02.638Z,0
2023-04-29T04:22:01.762Z,0
2023-04-29T04:23:01.320Z,0
2023-04-29T04:24:01.916Z,0
2023-04-29T04:25:01.926Z,0
2023-04-29T04:26:01.069Z,0
2023-04-29T04:27:01.087Z,0
2023-04-29T04:28:01.062Z,0
2023-04-29T04:29:01.451Z,0
2023-04-29T04:30:01.217Z,0
2023-04-29T04:31:01.075Z,0
2023-04-29T04:32:01.071Z,0
2023-04-29T04:33:01.132Z,0
2023-04-29T04:34:01.113Z,0.019444444444444445
2023-04-29T04:35:00.723Z,0
2023-04-29T04:36:00.772Z,0
2023-04-29T04:37:00.707Z,0
2023-04-29T04:38:00.725Z,0
2023-04-29T04:39:00.415Z,0
2023-04-29T04:40:00.164Z,0
2023-04-29T04:40:59.893Z,0
2023-04-29T04:41:59.499Z,0
2023-04-29T04:43:01.045Z,0
2023-04-29T04:44:01.059Z,0
2023-04-29T04:45:01.406Z,0
2023-04-29T04:46:02.106Z,0
2023-04-29T04:47:01.453Z,0
2023-04-29T04:48:02.258Z,0
2023-04-29T04:49:01.028Z,0
2023-04-29T04:50:01.079Z,0
2023-04-29T04:51:01.198Z,0.08055555555555555
2023-04-29T04:52:01.118Z,0.11944444444444444
2023-04-29T04:53:01.138Z,0.3972222222222222
2023-04-29T04:54:01.116Z,0.47777777777777775
2023-04-29T04:55:01.506Z,0
2023-04-29T04:56:01.068Z,0
2023-04-29T04:57:01.029Z,0.2777777777777778
2023-04-29T04:58:01.048Z,0.11944444444444444
2023-04-29T04:59:01.034Z,0.30833333333333335
2023-04-29T05:00:01.127Z,0
2023-04-29T05:01:01.178Z,0
2023-04-29T05:02:01.309Z,0.5555555555555556
2023-04-29T05:03:01.175Z,0.15833333333333333
2023-04-29T05:04:01.424Z,0
2023-04-29T05:05:01.516Z,0.22222222222222224
2023-04-29T05:06:01.099Z,0.03888888888888889
2023-04-29T05:07:01.102Z,0
2023-04-29T05:08:01.123Z,0.2777777777777778
2023-04-29T05:09:01.111Z,0.2333333333333333
2023-04-29T05:10:01.123Z,0
2023-04-29T05:11:00.865Z,0
2023-04-29T05:12:01.010Z,0
2023-04-29T05:13:01.022Z,0
2023-04-29T05:14:00.766Z,0
2023-04-29T05:15:00.318Z,0
2023-04-29T05:15:59.916Z,0
2023-04-29T05:16:59.558Z,0.11944444444444444
2023-04-29T05:18:01.866Z,0.03888888888888889
2023-04-29T05:19:03.423Z,0.49166666666666664
2023-04-29T05:20:01.077Z,0.07777777777777778
2023-04-29T05:21:01.078Z,0
2023-04-29T05:22:01.147Z,0.675
2023-04-29T05:23:01.111Z,0.47777777777777775
2023-04-29T05:24:06.421Z,0.024999999999999998
2023-04-29T05:25:03.830Z,0.03888888888888889
2023-04-29T05:26:01.116Z,0.2777777777777778
2023-04-29T05:27:01.112Z,0.19999999999999998
2023-04-29T05:28:01.118Z,0.19999999999999998
2023-04-29T05:29:09.093Z,0
2023-04-29T05:30:01.468Z,0
2023-04-29T05:31:01.228Z,0.35833333333333334
2023-04-29T05:32:01.826Z,0.25555555555555554
2023-04-29T05:33:01.447Z,0.19999999999999998
2023-04-29T05:34:12.747Z,0.25833333333333336
2023-04-29T05:35:01.350Z,0
2023-04-29T05:36:02.119Z,0.08055555555555555
2023-04-29T05:37:01.104Z,0.15833333333333333
2023-04-29T05:38:01.584Z,0.15833333333333333
2023-04-29T05:39:14.887Z,0.2833333333333333
2023-04-29T05:40:01.141Z,0
2023-04-29T05:41:01.641Z,0
2023-04-29T05:42:02.024Z,0
2023-04-29T05:43:01.798Z,0.08055555555555555
2023-04-29T05:44:01.158Z,0
2023-04-29T05:45:01.045Z,0.03888888888888889
2023-04-29T05:46:01.112Z,0
2023-04-29T05:47:01.053Z,0.03888888888888889
2023-04-29T05:48:01.091Z,0
2023-04-29T05:49:01.065Z,0.15833333333333333
2023-04-29T05:50:02.048Z,0
2023-04-29T05:51:01.070Z,0.31666666666666665
2023-04-29T05:52:01.012Z,0
2023-04-29T05:53:01.023Z,0
2023-04-29T05:54:01.195Z,0.08055555555555555
2023-04-29T05:55:01.488Z,0
2023-04-29T05:56:01.024Z,0.03888888888888889
2023-04-29T05:57:01.104Z,0.15833333333333333
2023-04-29T05:58:01.111Z,0
2023-04-29T05:59:01.131Z,0.11944444444444444
2023-04-29T06:00:01.848Z,0.08055555555555555
2023-04-29T06:01:01.838Z,0.08055555555555555
2023-04-29T06:02:01.216Z,0.35833333333333334
2023-04-29T06:03:02.883Z,0.2777777777777778
2023-04-29T06:04:01.814Z,0
2023-04-29T06:05:01.237Z,0
2023-04-29T06:06:01.268Z,0.23888888888888887
2023-04-29T06:07:01.301Z,0.675
2023-04-29T06:08:01.310Z,0.6361111111111111
2023-04-29T06:09:01.349Z,0.2777777777777778
2023-04-29T06:10:00.898Z,0
2023-04-29T06:11:01.094Z,0.5555555555555556
2023-04-29T06:12:01.117Z,1.0333333333333334
2023-04-29T06:13:01.126Z,0.4361111111111111
2023-04-29T06:14:01.109Z,0.11944444444444444
2023-04-29T06:15:01.133Z,0.03888888888888889
2023-04-29T06:16:01.177Z,0
2023-04-29T06:17:01.167Z,0.35833333333333334
2023-04-29T06:18:02.254Z,0.03888888888888889
2023-04-29T06:19:02.216Z,0
2023-04-29T06:20:01.982Z,0.14722222222222223
2023-04-29T06:21:01.874Z,0.03888888888888889
2023-04-29T06:22:01.733Z,0.08055555555555555
2023-04-29T06:23:01.073Z,0
2023-04-29T06:24:01.096Z,0
2023-04-29T06:25:01.420Z,0.08055555555555555
2023-04-29T06:26:02.111Z,0.07777777777777778
2023-04-29T06:27:01.105Z,0.4361111111111111
2023-04-29T06:28:01.104Z,0.3972222222222222
2023-04-29T06:29:01.126Z,0
2023-04-29T06:30:00.934Z,0.15
2023-04-29T06:31:01.129Z,0.5166666666666667
2023-04-29T06:32:01.121Z,0
2023-04-29T06:33:01.077Z,0
2023-04-29T06:34:01.068Z,0.23888888888888887
2023-04-29T06:35:02.176Z,0.31666666666666665
2023-04-29T06:36:01.049Z,0.23888888888888887
2023-04-29T06:37:01.602Z,0.47777777777777775
2023-04-29T06:38:02.500Z,0.5166666666666667
2023-04-29T06:39:01.408Z,0.03888888888888889
2023-04-29T06:40:02.096Z,0.5166666666666667
2023-04-29T06:41:01.467Z,0.10833333333333334
2023-04-29T06:42:01.199Z,0.675
2023-04-29T06:43:01.015Z,0.7138888888888888
2023-04-29T06:44:01.103Z,0.7555555555555555
2023-04-29T06:45:01.016Z,0.41944444444444445
2023-04-29T06:46:01.120Z,0
2023-04-29T06:47:01.161Z,0
2023-04-29T06:48:01.043Z,0.03888888888888889
2023-04-29T06:49:01.056Z,0.31666666666666665
2023-04-29T06:50:01.367Z,0.26944444444444443
2023-04-29T06:51:01.764Z,0.03888888888888889
2023-04-29T06:52:01.900Z,0
2023-04-29T06:53:01.588Z,0.08055555555555555
2023-04-29T06:54:01.871Z,0.4361111111111111
2023-04-29T06:55:01.576Z,0.12222222222222222
2023-04-29T06:56:01.089Z,0.15833333333333333
2023-04-29T06:57:01.151Z,0.875
2023-04-29T06:58:02.361Z,0.08055555555555555
2023-04-29T06:59:01.111Z,0
2023-04-29T07:00:01.420Z,0.06111111111111111
2023-04-29T07:01:01.136Z,0
2023-04-29T07:02:01.142Z,0.03888888888888889
2023-04-29T07:03:01.210Z,0
2023-04-29T07:04:01.206Z,1.1111111111111112
2023-04-29T07:05:04.338Z,0.7138888888888888
2023-04-29T07:06:01.036Z,0.47777777777777775
2023-04-29T07:07:00.943Z,0.11944444444444444
2023-04-29T07:08:01.053Z,0.7555555555555555
2023-04-29T07:09:01.188Z,0.15833333333333333
2023-04-29T07:10:06.749Z,0.5777777777777778
2023-04-29T07:11:01.167Z,0.5555555555555556
2023-04-29T07:12:01.092Z,0.03888888888888889
2023-04-29T07:13:01.104Z,0.2777777777777778
2023-04-29T07:14:01.795Z,0
2023-04-29T07:15:08.591Z,0.011111111111111112
2023-04-29T07:16:01.688Z,0.5166666666666667
2023-04-29T07:17:01.170Z,0.47777777777777775
2023-04-29T07:18:01.815Z,0.11944444444444444
2023-04-29T07:19:01.132Z,0
2023-04-29T07:20:10.910Z,0.5166666666666667
2023-04-29T07:21:01.460Z,0.7694444444444444
2023-04-29T07:22:02.713Z,1.172222222222222
2023-04-29T07:23:01.052Z,0.23888888888888887
2023-04-29T07:24:01.067Z,0.23888888888888887
2023-04-29T07:25:13.428Z,0.7138888888888888
2023-04-29T07:26:01.745Z,0.4361111111111111
2023-04-29T07:27:01.113Z,1.0722222222222222
2023-04-29T07:28:01.074Z,1.2305555555555554
2023-04-29T07:29:01.213Z,0.5972222222222222
2023-04-29T07:30:15.256Z,0.4666666666666666
2023-04-29T07:31:01.023Z,0.47777777777777775
2023-04-29T07:32:01.136Z,0.5555555555555556
2023-04-29T07:33:01.555Z,1.1333333333333333
2023-04-29T07:34:01.137Z,0.5555555555555556
2023-04-29T07:35:01.108Z,0.675
2023-04-29T07:36:01.058Z,0.2777777777777778
2023-04-29T07:37:01.082Z,0.5166666666666667
2023-04-29T07:38:01.458Z,0.2777777777777778
2023-04-29T07:39:01.082Z,1.55
2023-04-29T07:40:01.358Z,0.7138888888888888
2023-04-29T07:41:01.078Z,0.5166666666666667
2023-04-29T07:42:01.098Z,0.8333333333333333
2023-04-29T07:43:01.363Z,0.5555555555555556
2023-04-29T07:44:01.110Z,0.31666666666666665
2023-04-29T07:45:01.108Z,0.3972222222222222
2023-04-29T07:46:01.051Z,0.4361111111111111
2023-04-29T07:47:01.765Z,0.31666666666666665
2023-04-29T07:48:01.330Z,0.03888888888888889
2023-04-29T07:49:01.602Z,0
2023-04-29T07:50:01.253Z,0.4361111111111111
2023-04-29T07:51:01.000Z,0.23888888888888887
2023-04-29T07:52:01.034Z,0.2777777777777778
2023-04-29T07:53:01.031Z,0.35833333333333334
2023-04-29T07:54:01.047Z,0.7138888888888888
2023-04-29T07:55:01.045Z,0.7138888888888888
2023-04-29T07:56:01.079Z,0.5555555555555556
2023-04-29T07:57:01.022Z,0.5555555555555556
2023-04-29T07:58:01.188Z,0.4361111111111111
2023-04-29T07:59:01.119Z,0.875
2023-04-29T08:00:01.055Z,0.31666666666666665
2023-04-29T08:01:01.090Z,0.35833333333333334
2023-04-29T08:02:01.085Z,0.31666666666666665
2023-04-29T08:03:01.306Z,0.19999999999999998
2023-04-29T08:04:01.222Z,0.4361111111111111
2023-04-29T08:05:03.435Z,0.3972222222222222
2023-04-29T08:06:02.392Z,0.03888888888888889
2023-04-29T08:07:01.494Z,0.5472222222222222
2023-04-29T08:08:01.040Z,0.6361111111111111
2023-04-29T08:09:01.734Z,0.6361111111111111
2023-04-29T08:10:01.355Z,0.11944444444444444
2023-04-29T08:11:00.725Z,1.0722222222222222
2023-04-29T08:12:00.664Z,0.23888888888888887
2023-04-29T08:13:00.351Z,0.7555555555555555
2023-04-29T08:14:00.281Z,0.7138888888888888
2023-04-29T08:14:59.836Z,0.9527777777777778
2023-04-29T08:16:02.051Z,1.0333333333333334
2023-04-29T08:17:01.082Z,0.7555555555555555
2023-04-29T08:18:02.012Z,0.7555555555555555
2023-04-29T08:19:01.904Z,0.7555555555555555
2023-04-29T08:20:01.134Z,0.7944444444444444
2023-04-29T08:21:01.127Z,0.19999999999999998
2023-04-29T08:22:01.508Z,0.32499999999999996
2023-04-29T08:23:01.131Z,0.675
2023-04-29T08:24:16.455Z,0.5972222222222222
2023-04-29T08:25:02.331Z,0.26944444444444443
2023-04-29T08:26:01.052Z,0.5777777777777778
2023-04-29T08:27:01.068Z,1.1916666666666667
2023-04-29T08:28:01.684Z,1.55
2023-04-29T08:29:03.999Z,1.55
2023-04-29T08:30:01.834Z,0.15833333333333333
2023-04-29T08:31:00.717Z,1.2916666666666667
2023-04-29T08:32:00.659Z,0.7944444444444444
2023-04-29T08:33:00.548Z,0.9944444444444445
2023-04-29T08:34:00.168Z,0.7944444444444444
2023-04-29T08:34:59.702Z,1.2722222222222221
2023-04-29T08:36:01.281Z,0.4805555555555555
2023-04-29T08:37:01.111Z,1.2305555555555554
2023-04-29T08:38:01.109Z,0.7944444444444444
2023-04-29T08:39:01.034Z,0.9138888888888889
2023-04-29T08:40:01.016Z,1.4305555555555556
2023-04-29T08:41:01.142Z,1.0944444444444443
2023-04-29T08:42:03.916Z,1.1916666666666667
2023-04-29T08:43:01.042Z,0.23888888888888887
2023-04-29T08:44:01.105Z,0.5972222222222222
2023-04-29T08:45:01.183Z,0.35833333333333334
2023-04-29T08:46:02.191Z,0.3333333333333333
2023-04-29T08:47:01.019Z,0.19999999999999998
2023-04-29T08:48:01.359Z,0.31666666666666665
2023-04-29T08:49:01.294Z,0.31666666666666665
2023-04-29T08:50:01.532Z,0.7944444444444444
2023-04-29T08:51:02.269Z,0.5055555555555555
2023-04-29T08:52:01.033Z,0.47777777777777775
2023-04-29T08:53:01.112Z,0.4361111111111111
2023-04-29T08:54:01.763Z,1.35
2023-04-29T08:55:01.683Z,0.6361111111111111
2023-04-29T08:56:05.830Z,0.961111111111111
2023-04-29T08:57:01.434Z,0.10555555555555556
2023-04-29T08:58:01.094Z,0.9138888888888889
2023-04-29T08:59:01.062Z,0.2777777777777778
2023-04-29T09:00:01.709Z,0.2777777777777778
2023-04-29T09:01:08.958Z,0.6
2023-04-29T09:02:02.498Z,1.0722222222222222
2023-04-29T09:03:01.466Z,0.586111111111111
2023-04-29T09:04:01.198Z,0.7138888888888888
2023-04-29T09:05:02.955Z,1.1416666666666668
2023-04-29T09:06:08.967Z,1.1555555555555557
2023-04-29T09:07:01.114Z,0.9944444444444445
2023-04-29T09:08:01.339Z,0.7138888888888888
2023-04-29T09:09:01.419Z,1.3111111111111111
2023-04-29T09:10:02.032Z,0.7555555555555555
2023-04-29T09:11:10.743Z,0.7555555555555555
2023-04-29T09:12:01.419Z,0.5555555555555556
2023-04-29T09:13:01.147Z,0.5166666666666667
2023-04-29T09:14:00.739Z,0.875
2023-04-29T09:15:00.475Z,0.35833333333333334
2023-04-29T09:16:13.137Z,0.6361111111111111
2023-04-29T09:17:01.475Z,0.47777777777777775
2023-04-29T09:18:02.027Z,0.7138888888888888
2023-04-29T09:19:01.341Z,1.3111111111111111
2023-04-29T09:20:01.205Z,0.9527777777777778
2023-04-29T09:21:17.492Z,0.9083333333333333
2023-04-29T09:22:01.130Z,0.9138888888888889
2023-04-29T09:23:01.099Z,0.8333333333333333
2023-04-29T09:24:01.014Z,0.47777777777777775
2023-04-29T09:25:01.013Z,0.8333333333333333
2023-04-29T09:26:01.192Z,1.1111111111111112
2023-04-29T09:27:01.203Z,1.3916666666666666
2023-04-29T09:28:01.492Z,0.19999999999999998
2023-04-29T09:29:02.067Z,1.2305555555555554
2023-04-29T09:30:01.902Z,0.2916666666666667
2023-04-29T09:31:00.845Z,0.19999999999999998
2023-04-29T09:32:01.183Z,0.19999999999999998
2023-04-29T09:33:01.076Z,0.4361111111111111
2023-04-29T09:34:01.157Z,1.0722222222222222
2023-04-29T09:35:01.035Z,0.47777777777777775
2023-04-29T09:36:01.094Z,0.7138888888888888
2023-04-29T09:37:01.106Z,0.875
2023-04-29T09:38:01.477Z,0.32499999999999996
2023-04-29T09:39:00.804Z,0.47777777777777775
2023-04-29T09:40:00.386Z,0.5166666666666667
2023-04-29T09:41:02.547Z,1.1916666666666667
2023-04-29T09:42:01.116Z,0.3972222222222222
2023-04-29T09:43:01.059Z,0.9944444444444445
2023-04-29T09:44:01.048Z,1.152777777777778
2023-04-29T09:45:01.314Z,0.31666666666666665
2023-04-29T09:46:01.138Z,0.3972222222222222
2023-04-29T09:47:01.402Z,0.7138888888888888
2023-04-29T09:48:01.631Z,0.8638888888888888
2023-04-29T09:49:01.043Z,1.3111111111111111
2023-04-29T09:50:01.073Z,0.7555555555555555
2023-04-29T09:51:00.768Z,0.6361111111111111
2023-04-29T09:52:00.326Z,0.4361111111111111
2023-04-29T09:52:59.979Z,0.875
2023-04-29T09:53:59.719Z,0.8333333333333333
2023-04-29T09:55:01.688Z,2.225
2023-04-29T09:56:01.671Z,1.1916666666666667
2023-04-29T09:57:01.517Z,1.5194444444444444
2023-04-29T09:58:02.178Z,0.5499999999999999
2023-04-29T09:59:02.352Z,0.7138888888888888
2023-04-29T10:00:01.135Z,0.9527777777777778
2023-04-29T10:01:01.249Z,0.875
2023-04-29T10:02:01.336Z,1.3916666666666666
2023-04-29T10:03:02.196Z,0.47777777777777775
2023-04-29T10:04:01.147Z,0.5166666666666667
2023-04-29T10:05:01.482Z,0.5111111111111111
2023-04-29T10:06:02.412Z,1.2305555555555554
2023-04-29T10:07:01.264Z,1.152777777777778
2023-04-29T10:08:01.106Z,1.5083333333333333
2023-04-29T10:09:01.247Z,0.875
2023-04-29T10:10:01.103Z,0.3972222222222222
2023-04-29T10:11:00.787Z,2.1444444444444444
2023-04-29T10:12:00.376Z,0.5166666666666667
2023-04-29T10:12:59.974Z,0.7138888888888888
2023-04-29T10:13:59.907Z,1.55
2023-04-29T10:14:59.513Z,1.0722222222222222
2023-04-29T10:16:01.533Z,1.2305555555555554
2023-04-29T10:17:08.522Z,1.0777777777777777
2023-04-29T10:18:01.311Z,0.47777777777777775
2023-04-29T10:19:02.053Z,1.0638888888888889
2023-04-29T10:20:01.217Z,0.9527777777777778
2023-04-29T10:21:01.358Z,0.7138888888888888
2023-04-29T10:22:02.042Z,1.4138888888888888
2023-04-29T10:23:02.097Z,1.55
2023-04-29T10:24:01.088Z,0.9138888888888889
2023-04-29T10:25:01.204Z,1.7083333333333335
2023-04-29T10:26:01.104Z,1.6694444444444443
2023-04-29T10:27:01.416Z,0.7777777777777777
2023-04-29T10:28:01.183Z,0.8333333333333333
2023-04-29T10:29:01.123Z,1.0333333333333334
2023-04-29T10:30:01.142Z,0.9527777777777778
2023-04-29T10:31:00.937Z,1.35
2023-04-29T10:32:01.100Z,0.9722222222222222
2023-04-29T10:33:01.868Z,1.4694444444444443
2023-04-29T10:34:01.869Z,1.5083333333333333
2023-04-29T10:35:01.449Z,0.8916666666666666
2023-04-29T10:36:01.375Z,1.152777777777778
2023-04-29T10:37:02.851Z,0.5305555555555556
2023-04-29T10:38:01.171Z,1.3111111111111111
2023-04-29T10:39:01.068Z,1.1111111111111112
2023-04-29T10:40:01.623Z,1.0722222222222222
2023-04-29T10:41:01.120Z,1.3111111111111111
2023-04-29T10:42:06.271Z,1.2805555555555557
2023-04-29T10:43:01.478Z,1.0694444444444444
2023-04-29T10:44:03.607Z,1.172222222222222
2023-04-29T10:45:01.115Z,1.1111111111111112
2023-04-29T10:46:01.109Z,1.2305555555555554
2023-04-29T10:47:08.467Z,0.9083333333333333
2023-04-29T10:48:00.852Z,1.0333333333333334
2023-04-29T10:49:00.613Z,0.5972222222222222
2023-04-29T10:50:00.402Z,0.9527777777777778
2023-04-29T10:51:00.011Z,0.8333333333333333
2023-04-29T10:52:09.959Z,0.2777777777777778
2023-04-29T10:53:01.196Z,0.6361111111111111
2023-04-29T10:54:01.659Z,0.23888888888888887
2023-04-29T10:55:01.515Z,1.4444444444444444
2023-04-29T10:56:01.499Z,1.3888888888888888
2023-04-29T10:57:12.661Z,0.7861111111111111
2023-04-29T10:58:01.018Z,1.35
2023-04-29T10:59:01.028Z,1.3916666666666666